sensor_id;sensor_type;location;lat;lon;timestamp;P1;durP1;ratioP1;P2;durP2;ratioP2
27983;SDS011;15317;50.360;8.726;2023-04-25T00:00:00;14.60;;;13.30;;
27983;SDS011;15317;50.360;8.726;2023-04-25T00:05:05;13.90;;;12.70;;
27983;SDS011;15317;50.360;8.726;2023-04-25T00:10:10;14.90;;;13.60;;
27983;SDS011;15317;50.360;8.726;2023-04-25T00:15:15;14.97;;;13.53;;
27983;SDS011;15317;50.360;8.726;2023-04-25T00:20:18;15.40;;;14.03;;
27983;SDS011;15317;50.360;8.726;2023-04-25T00:25:21;16.63;;;15.03;;
27983;SDS011;15317;50.360;8.726;2023-04-25T00:30:26;15.53;;;14.13;;
27983;SDS011;15317;50.360;8.726;2023-04-25T00:35:30;16.27;;;14.77;;
27983;SDS011;15317;50.360;8.726;2023-04-25T00:40:35;15.63;;;14.13;;
27983;SDS011;15317;50.360;8.726;2023-04-25T00:45:39;15.63;;;14.33;;
27983;SDS011;15317;50.360;8.726;2023-04-25T00:50:43;15.53;;;14.20;;
27983;SDS011;15317;50.360;8.726;2023-04-25T00:55:54;15.87;;;14.37;;
27983;SDS011;15317;50.360;8.726;2023-04-25T01:00:59;17.57;;;15.97;;
27983;SDS011;15317;50.360;8.726;2023-04-25T01:06:02;17.97;;;16.17;;
27983;SDS011;15317;50.360;8.726;2023-04-25T01:11:06;18.47;;;16.73;;
27983;SDS011;15317;50.360;8.726;2023-04-25T01:16:10;18.17;;;16.43;;
27983;SDS011;15317;50.360;8.726;2023-04-25T01:21:15;18.37;;;16.63;;
27983;SDS011;15317;50.360;8.726;2023-04-25T01:26:18;18.83;;;17.13;;
27983;SDS011;15317;50.360;8.726;2023-04-25T01:31:22;18.07;;;16.37;;
27983;SDS011;15317;50.360;8.726;2023-04-25T01:36:28;19.30;;;17.50;;
27983;SDS011;15317;50.360;8.726;2023-04-25T01:41:32;18.77;;;17.00;;
27983;SDS011;15317;50.360;8.726;2023-04-25T01:46:36;18.47;;;16.70;;
27983;SDS011;15317;50.360;8.726;2023-04-25T01:51:40;19.00;;;17.10;;
27983;SDS011;15317;50.360;8.726;2023-04-25T01:56:49;17.10;;;15.50;;
27983;SDS011;15317;50.360;8.726;2023-04-25T02:01:53;19.73;;;17.70;;
27983;SDS011;15317;50.360;8.726;2023-04-25T02:06:57;18.50;;;16.60;;
27983;SDS011;15317;50.360;8.726;2023-04-25T02:12:01;17.20;;;15.40;;
27983;SDS011;15317;50.360;8.726;2023-04-25T02:17:04;18.03;;;15.20;;
27983;SDS011;15317;50.360;8.726;2023-04-25T02:22:09;17.93;;;16.13;;
27983;SDS011;15317;50.360;8.726;2023-04-25T02:27:12;18.50;;;16.60;;
27983;SDS011;15317;50.360;8.726;2023-04-25T02:32:15;20.27;;;18.07;;
27983;SDS011;15317;50.360;8.726;2023-04-25T02:37:19;16.80;;;15.03;;
27983;SDS011;15317;50.360;8.726;2023-04-25T02:42:22;15.93;;;14.13;;
27983;SDS011;15317;50.360;8.726;2023-04-25T02:47:25;17.10;;;13.80;;
27983;SDS011;15317;50.360;8.726;2023-04-25T02:52:31;15.00;;;13.43;;
27983;SDS011;15317;50.360;8.726;2023-04-25T02:57:34;15.60;;;12.60;;
27983;SDS011;15317;50.360;8.726;2023-04-25T03:02:37;14.93;;;13.40;;
27983;SDS011;15317;50.360;8.726;2023-04-25T03:07:41;14.87;;;13.30;;
27983;SDS011;15317;50.360;8.726;2023-04-25T03:12:45;15.97;;;13.87;;
27983;SDS011;15317;50.360;8.726;2023-04-25T03:17:48;16.73;;;13.47;;
27983;SDS011;15317;50.360;8.726;2023-04-25T03:22:53;14.53;;;12.97;;
27983;SDS011;15317;50.360;8.726;2023-04-25T03:27:56;14.53;;;13.03;;
27983;SDS011;15317;50.360;8.726;2023-04-25T03:33:00;13.23;;;11.73;;
27983;SDS011;15317;50.360;8.726;2023-04-25T03:38:05;12.97;;;11.67;;
27983;SDS011;15317;50.360;8.726;2023-04-25T03:43:08;15.23;;;12.17;;
27983;SDS011;15317;50.360;8.726;2023-04-25T03:48:11;15.23;;;11.57;;
27983;SDS011;15317;50.360;8.726;2023-04-25T03:53:15;15.60;;;11.73;;
27983;SDS011;15317;50.360;8.726;2023-04-25T03:58:18;12.90;;;11.27;;
27983;SDS011;15317;50.360;8.726;2023-04-25T04:03:21;15.10;;;11.37;;
27983;SDS011;15317;50.360;8.726;2023-04-25T04:08:26;12.23;;;10.60;;
27983;SDS011;15317;50.360;8.726;2023-04-25T04:13:29;14.03;;;10.90;;
27983;SDS011;15317;50.360;8.726;2023-04-25T04:18:32;11.57;;;9.27;;
27983;SDS011;15317;50.360;8.726;2023-04-25T04:23:37;12.40;;;10.20;;
27983;SDS011;15317;50.360;8.726;2023-04-25T04:28:47;15.23;;;10.50;;
27983;SDS011;15317;50.360;8.726;2023-04-25T04:33:50;12.97;;;10.80;;
27983;SDS011;15317;50.360;8.726;2023-04-25T04:38:55;11.33;;;8.67;;
27983;SDS011;15317;50.360;8.726;2023-04-25T04:43:58;11.73;;;9.67;;
27983;SDS011;15317;50.360;8.726;2023-04-25T04:49:03;13.30;;;9.10;;
27983;SDS011;15317;50.360;8.726;2023-04-25T04:54:08;12.80;;;9.40;;
27983;SDS011;15317;50.360;8.726;2023-04-25T04:59:11;11.70;;;9.73;;
27983;SDS011;15317;50.360;8.726;2023-04-25T05:04:14;13.93;;;10.00;;
27983;SDS011;15317;50.360;8.726;2023-04-25T05:09:19;13.70;;;9.17;;
27983;SDS011;15317;50.360;8.726;2023-04-25T05:14:22;12.80;;;8.87;;
27983;SDS011;15317;50.360;8.726;2023-04-25T05:19:25;13.33;;;9.20;;
27983;SDS011;15317;50.360;8.726;2023-04-25T05:24:30;12.20;;;9.33;;
27983;SDS011;15317;50.360;8.726;2023-04-25T05:29:33;9.63;;;8.20;;
27983;SDS011;15317;50.360;8.726;2023-04-25T05:34:36;10.70;;;8.30;;
27983;SDS011;15317;50.360;8.726;2023-04-25T05:39:41;8.47;;;7.63;;
27983;SDS011;15317;50.360;8.726;2023-04-25T05:44:44;8.80;;;7.80;;
27983;SDS011;15317;50.360;8.726;2023-04-25T05:49:47;9.07;;;7.33;;
27983;SDS011;15317;50.360;8.726;2023-04-25T05:54:51;12.40;;;7.50;;
27983;SDS011;15317;50.360;8.726;2023-04-25T05:59:54;8.93;;;6.87;;
27983;SDS011;15317;50.360;8.726;2023-04-25T06:04:58;8.93;;;6.53;;
27983;SDS011;15317;50.360;8.726;2023-04-25T06:10:04;8.60;;;6.43;;
27983;SDS011;15317;50.360;8.726;2023-04-25T06:15:08;8.23;;;5.83;;
27983;SDS011;15317;50.360;8.726;2023-04-25T06:20:28;9.10;;;6.50;;
27983;SDS011;15317;50.360;8.726;2023-04-25T06:25:33;8.70;;;5.93;;
27983;SDS011;15317;50.360;8.726;2023-04-25T06:30:36;5.90;;;5.30;;
27983;SDS011;15317;50.360;8.726;2023-04-25T06:35:39;7.50;;;5.70;;
27983;SDS011;15317;50.360;8.726;2023-04-25T06:40:43;7.70;;;5.90;;
27983;SDS011;15317;50.360;8.726;2023-04-25T06:45:47;8.47;;;5.57;;
27983;SDS011;15317;50.360;8.726;2023-04-25T06:50:50;7.13;;;5.77;;
27983;SDS011;15317;50.360;8.726;2023-04-25T06:55:54;7.87;;;5.97;;
27983;SDS011;15317;50.360;8.726;2023-04-25T07:00:58;7.63;;;5.80;;
27983;SDS011;15317;50.360;8.726;2023-04-25T07:06:01;6.43;;;5.40;;
27983;SDS011;15317;50.360;8.726;2023-04-25T07:11:06;6.03;;;5.27;;
27983;SDS011;15317;50.360;8.726;2023-04-25T07:16:09;6.37;;;5.77;;
27983;SDS011;15317;50.360;8.726;2023-04-25T07:21:12;6.53;;;5.67;;
27983;SDS011;15317;50.360;8.726;2023-04-25T07:26:17;6.30;;;5.20;;
27983;SDS011;15317;50.360;8.726;2023-04-25T07:31:21;5.63;;;4.93;;
27983;SDS011;15317;50.360;8.726;2023-04-25T07:36:25;5.20;;;4.63;;
27983;SDS011;15317;50.360;8.726;2023-04-25T07:41:30;5.80;;;5.23;;
27983;SDS011;15317;50.360;8.726;2023-04-25T07:46:34;7.20;;;5.40;;
27983;SDS011;15317;50.360;8.726;2023-04-25T07:51:37;6.50;;;5.77;;
27983;SDS011;15317;50.360;8.726;2023-04-25T07:56:42;7.20;;;5.70;;
27983;SDS011;15317;50.360;8.726;2023-04-25T08:01:54;5.73;;;5.20;;
27983;SDS011;15317;50.360;8.726;2023-04-25T08:06:58;7.03;;;5.33;;
27983;SDS011;15317;50.360;8.726;2023-04-25T08:12:03;5.43;;;5.00;;
27983;SDS011;15317;50.360;8.726;2023-04-25T08:17:06;7.27;;;6.47;;
27983;SDS011;15317;50.360;8.726;2023-04-25T08:22:10;5.40;;;4.90;;
27983;SDS011;15317;50.360;8.726;2023-04-25T08:27:15;7.13;;;5.47;;
27983;SDS011;15317;50.360;8.726;2023-04-25T08:32:18;6.13;;;5.63;;
27983;SDS011;15317;50.360;8.726;2023-04-25T08:37:22;5.53;;;5.00;;
27983;SDS011;15317;50.360;8.726;2023-04-25T08:42:27;5.40;;;4.87;;
27983;SDS011;15317;50.360;8.726;2023-04-25T08:47:33;7.13;;;5.90;;
27983;SDS011;15317;50.360;8.726;2023-04-25T08:52:39;6.00;;;5.47;;
27983;SDS011;15317;50.360;8.726;2023-04-25T08:57:48;5.67;;;5.13;;
27983;SDS011;15317;50.360;8.726;2023-04-25T09:02:52;5.77;;;5.17;;
27983;SDS011;15317;50.360;8.726;2023-04-25T09:07:55;5.63;;;5.00;;
27983;SDS011;15317;50.360;8.726;2023-04-25T09:13:04;5.60;;;5.10;;
27983;SDS011;15317;50.360;8.726;2023-04-25T09:18:08;6.13;;;5.53;;
27983;SDS011;15317;50.360;8.726;2023-04-25T09:23:11;6.57;;;5.43;;
27983;SDS011;15317;50.360;8.726;2023-04-25T09:28:24;6.63;;;5.53;;
27983;SDS011;15317;50.360;8.726;2023-04-25T09:33:32;5.73;;;5.13;;
27983;SDS011;15317;50.360;8.726;2023-04-25T09:38:39;8.30;;;5.67;;
27983;SDS011;15317;50.360;8.726;2023-04-25T09:43:45;7.17;;;5.77;;
27983;SDS011;15317;50.360;8.726;2023-04-25T09:48:49;5.73;;;4.93;;
27983;SDS011;15317;50.360;8.726;2023-04-25T09:53:55;4.50;;;3.60;;
27983;SDS011;15317;50.360;8.726;2023-04-25T09:58:59;4.03;;;3.17;;
27983;SDS011;15317;50.360;8.726;2023-04-25T10:04:02;4.63;;;3.20;;
27983;SDS011;15317;50.360;8.726;2023-04-25T10:09:08;4.33;;;3.30;;
27983;SDS011;15317;50.360;8.726;2023-04-25T10:14:13;4.40;;;3.57;;
27983;SDS011;15317;50.360;8.726;2023-04-25T10:19:17;4.97;;;3.40;;
27983;SDS011;15317;50.360;8.726;2023-04-25T10:24:20;5.67;;;3.03;;
27983;SDS011;15317;50.360;8.726;2023-04-25T10:29:26;5.77;;;3.07;;
27983;SDS011;15317;50.360;8.726;2023-04-25T10:34:38;4.37;;;2.70;;
27983;SDS011;15317;50.360;8.726;2023-04-25T10:39:43;5.73;;;3.00;;
27983;SDS011;15317;50.360;8.726;2023-04-25T10:45:01;5.07;;;2.70;;
27983;SDS011;15317;50.360;8.726;2023-04-25T10:50:08;4.97;;;2.47;;
27983;SDS011;15317;50.360;8.726;2023-04-25T10:55:11;5.80;;;3.20;;
27983;SDS011;15317;50.360;8.726;2023-04-25T11:00:17;4.87;;;3.37;;
27983;SDS011;15317;50.360;8.726;2023-04-25T11:05:27;4.37;;;3.10;;
27983;SDS011;15317;50.360;8.726;2023-04-25T11:10:41;6.07;;;3.13;;
27983;SDS011;15317;50.360;8.726;2023-04-25T11:15:46;5.37;;;3.33;;
27983;SDS011;15317;50.360;8.726;2023-04-25T11:21:13;7.20;;;3.77;;
27983;SDS011;15317;50.360;8.726;2023-04-25T11:26:16;4.67;;;3.30;;
27983;SDS011;15317;50.360;8.726;2023-04-25T11:31:21;3.83;;;3.30;;
27983;SDS011;15317;50.360;8.726;2023-04-25T11:36:24;5.13;;;3.00;;
27983;SDS011;15317;50.360;8.726;2023-04-25T11:41:28;4.90;;;3.13;;
27983;SDS011;15317;50.360;8.726;2023-04-25T11:46:34;4.73;;;3.20;;
27983;SDS011;15317;50.360;8.726;2023-04-25T11:51:38;5.23;;;3.57;;
27983;SDS011;15317;50.360;8.726;2023-04-25T11:56:42;6.67;;;3.50;;
27983;SDS011;15317;50.360;8.726;2023-04-25T12:01:49;4.90;;;3.23;;
27983;SDS011;15317;50.360;8.726;2023-04-25T12:06:54;5.80;;;3.60;;
27983;SDS011;15317;50.360;8.726;2023-04-25T12:11:58;7.63;;;4.13;;
27983;SDS011;15317;50.360;8.726;2023-04-25T12:17:06;5.20;;;3.80;;
27983;SDS011;15317;50.360;8.726;2023-04-25T12:22:20;7.00;;;5.30;;
27983;SDS011;15317;50.360;8.726;2023-04-25T12:27:25;7.10;;;3.73;;
27983;SDS011;15317;50.360;8.726;2023-04-25T12:32:31;5.63;;;3.40;;
27983;SDS011;15317;50.360;8.726;2023-04-25T12:37:35;6.50;;;3.80;;
27983;SDS011;15317;50.360;8.726;2023-04-25T12:42:38;4.60;;;3.23;;
27983;SDS011;15317;50.360;8.726;2023-04-25T12:47:42;4.43;;;3.50;;
27983;SDS011;15317;50.360;8.726;2023-04-25T12:52:47;5.47;;;3.40;;
27983;SDS011;15317;50.360;8.726;2023-04-25T12:57:50;4.17;;;3.20;;
27983;SDS011;15317;50.360;8.726;2023-04-25T13:02:55;5.03;;;3.37;;
27983;SDS011;15317;50.360;8.726;2023-04-25T13:07:58;6.73;;;4.30;;
27983;SDS011;15317;50.360;8.726;2023-04-25T13:13:02;6.23;;;3.20;;
27983;SDS011;15317;50.360;8.726;2023-04-25T13:18:07;6.70;;;3.70;;
27983;SDS011;15317;50.360;8.726;2023-04-25T13:23:10;7.63;;;3.90;;
27983;SDS011;15317;50.360;8.726;2023-04-25T13:28:14;4.87;;;3.60;;
27983;SDS011;15317;50.360;8.726;2023-04-25T13:33:19;5.83;;;3.80;;
27983;SDS011;15317;50.360;8.726;2023-04-25T13:38:23;5.33;;;3.53;;
27983;SDS011;15317;50.360;8.726;2023-04-25T13:43:27;7.50;;;4.00;;
27983;SDS011;15317;50.360;8.726;2023-04-25T13:48:31;5.07;;;3.60;;
27983;SDS011;15317;50.360;8.726;2023-04-25T13:53:34;5.87;;;3.60;;
27983;SDS011;15317;50.360;8.726;2023-04-25T13:58:37;5.37;;;3.33;;
27983;SDS011;15317;50.360;8.726;2023-04-25T14:03:42;4.70;;;2.90;;
27983;SDS011;15317;50.360;8.726;2023-04-25T14:08:45;3.17;;;2.87;;
27983;SDS011;15317;50.360;8.726;2023-04-25T14:13:48;6.10;;;2.90;;
27983;SDS011;15317;50.360;8.726;2023-04-25T14:18:53;4.27;;;2.70;;
27983;SDS011;15317;50.360;8.726;2023-04-25T14:23:57;6.53;;;2.80;;
27983;SDS011;15317;50.360;8.726;2023-04-25T14:29:00;5.20;;;2.80;;
27983;SDS011;15317;50.360;8.726;2023-04-25T14:34:05;6.27;;;2.73;;
27983;SDS011;15317;50.360;8.726;2023-04-25T14:39:08;4.43;;;2.70;;
27983;SDS011;15317;50.360;8.726;2023-04-25T14:44:11;6.00;;;3.00;;
27983;SDS011;15317;50.360;8.726;2023-04-25T14:49:16;6.43;;;3.30;;
27983;SDS011;15317;50.360;8.726;2023-04-25T14:54:19;5.20;;;2.90;;
27983;SDS011;15317;50.360;8.726;2023-04-25T14:59:23;4.53;;;3.40;;
27983;SDS011;15317;50.360;8.726;2023-04-25T15:04:27;4.43;;;3.10;;
27983;SDS011;15317;50.360;8.726;2023-04-25T15:09:31;5.67;;;4.50;;
27983;SDS011;15317;50.360;8.726;2023-04-25T15:14:35;4.03;;;2.90;;
27983;SDS011;15317;50.360;8.726;2023-04-25T15:19:39;4.33;;;3.13;;
27983;SDS011;15317;50.360;8.726;2023-04-25T15:24:43;4.43;;;2.93;;
27983;SDS011;15317;50.360;8.726;2023-04-25T15:29:46;3.73;;;2.80;;
27983;SDS011;15317;50.360;8.726;2023-04-25T15:34:50;5.10;;;2.60;;
27983;SDS011;15317;50.360;8.726;2023-04-25T15:39:54;4.33;;;3.00;;
27983;SDS011;15317;50.360;8.726;2023-04-25T15:45:06;4.97;;;2.57;;
27983;SDS011;15317;50.360;8.726;2023-04-25T15:50:12;4.97;;;3.37;;
27983;SDS011;15317;50.360;8.726;2023-04-25T15:55:16;5.03;;;2.63;;
27983;SDS011;15317;50.360;8.726;2023-04-25T16:00:21;5.30;;;2.80;;
27983;SDS011;15317;50.360;8.726;2023-04-25T16:05:26;4.57;;;2.50;;
27983;SDS011;15317;50.360;8.726;2023-04-25T16:10:29;5.27;;;3.13;;
27983;SDS011;15317;50.360;8.726;2023-04-25T16:15:32;4.43;;;3.07;;
27983;SDS011;15317;50.360;8.726;2023-04-25T16:20:37;4.30;;;3.20;;
27983;SDS011;15317;50.360;8.726;2023-04-25T16:25:41;5.07;;;3.23;;
27983;SDS011;15317;50.360;8.726;2023-04-25T16:30:45;5.00;;;3.27;;
27983;SDS011;15317;50.360;8.726;2023-04-25T16:35:49;7.03;;;3.60;;
27983;SDS011;15317;50.360;8.726;2023-04-25T16:40:53;6.47;;;4.03;;
27983;SDS011;15317;50.360;8.726;2023-04-25T16:45:56;5.03;;;2.83;;
27983;SDS011;15317;50.360;8.726;2023-04-25T16:51:01;4.23;;;2.73;;
27983;SDS011;15317;50.360;8.726;2023-04-25T16:56:04;6.07;;;2.70;;
27983;SDS011;15317;50.360;8.726;2023-04-25T17:01:09;4.47;;;3.60;;
27983;SDS011;15317;50.360;8.726;2023-04-25T17:06:17;5.50;;;2.47;;
27983;SDS011;15317;50.360;8.726;2023-04-25T17:11:20;3.83;;;2.70;;
27983;SDS011;15317;50.360;8.726;2023-04-25T17:16:28;4.07;;;2.47;;
27983;SDS011;15317;50.360;8.726;2023-04-25T17:21:38;5.27;;;2.90;;
27983;SDS011;15317;50.360;8.726;2023-04-25T17:26:41;5.60;;;2.90;;
27983;SDS011;15317;50.360;8.726;2023-04-25T17:31:46;4.77;;;2.50;;
27983;SDS011;15317;50.360;8.726;2023-04-25T17:36:50;5.53;;;3.30;;
27983;SDS011;15317;50.360;8.726;2023-04-25T17:41:53;5.40;;;3.00;;
27983;SDS011;15317;50.360;8.726;2023-04-25T17:46:57;4.63;;;2.60;;
27983;SDS011;15317;50.360;8.726;2023-04-25T17:52:03;3.07;;;2.50;;
27983;SDS011;15317;50.360;8.726;2023-04-25T17:57:07;5.13;;;4.10;;
27983;SDS011;15317;50.360;8.726;2023-04-25T18:02:10;5.33;;;2.90;;
27983;SDS011;15317;50.360;8.726;2023-04-25T18:07:14;6.40;;;4.83;;
27983;SDS011;15317;50.360;8.726;2023-04-25T18:12:18;3.60;;;2.77;;
27983;SDS011;15317;50.360;8.726;2023-04-25T18:17:21;14.80;;;13.40;;
27983;SDS011;15317;50.360;8.726;2023-04-25T18:22:27;6.73;;;3.17;;
27983;SDS011;15317;50.360;8.726;2023-04-25T18:27:30;9.37;;;8.47;;
27983;SDS011;15317;50.360;8.726;2023-04-25T18:32:33;15.27;;;13.77;;
27983;SDS011;15317;50.360;8.726;2023-04-25T18:37:39;5.23;;;4.17;;
27983;SDS011;15317;50.360;8.726;2023-04-25T18:42:43;3.00;;;2.40;;
27983;SDS011;15317;50.360;8.726;2023-04-25T18:47:46;3.30;;;2.47;;
27983;SDS011;15317;50.360;8.726;2023-04-25T18:52:51;2.97;;;2.50;;
27983;SDS011;15317;50.360;8.726;2023-04-25T18:57:54;3.30;;;2.50;;
27983;SDS011;15317;50.360;8.726;2023-04-25T19:02:57;4.80;;;2.50;;
27983;SDS011;15317;50.360;8.726;2023-04-25T19:08:05;3.90;;;2.40;;
27983;SDS011;15317;50.360;8.726;2023-04-25T19:13:08;2.87;;;1.93;;
27983;SDS011;15317;50.360;8.726;2023-04-25T19:18:12;3.20;;;2.80;;
27983;SDS011;15317;50.360;8.726;2023-04-25T19:23:16;4.73;;;3.00;;
27983;SDS011;15317;50.360;8.726;2023-04-25T19:28:19;3.57;;;2.70;;
27983;SDS011;15317;50.360;8.726;2023-04-25T19:33:23;3.70;;;3.00;;
27983;SDS011;15317;50.360;8.726;2023-04-25T19:38:28;4.30;;;2.80;;
27983;SDS011;15317;50.360;8.726;2023-04-25T19:43:31;6.17;;;4.93;;
27983;SDS011;15317;50.360;8.726;2023-04-25T19:48:34;8.13;;;5.50;;
27983;SDS011;15317;50.360;8.726;2023-04-25T19:53:38;7.50;;;5.30;;
27983;SDS011;15317;50.360;8.726;2023-04-25T19:58:41;6.93;;;6.03;;
27983;SDS011;15317;50.360;8.726;2023-04-25T20:03:44;8.33;;;7.53;;
27983;SDS011;15317;50.360;8.726;2023-04-25T20:08:51;5.60;;;4.50;;
27983;SDS011;15317;50.360;8.726;2023-04-25T20:13:55;6.93;;;5.77;;
27983;SDS011;15317;50.360;8.726;2023-04-25T20:18:58;7.13;;;6.40;;
27983;SDS011;15317;50.360;8.726;2023-04-25T20:24:03;8.50;;;5.13;;
27983;SDS011;15317;50.360;8.726;2023-04-25T20:29:07;6.10;;;4.00;;
27983;SDS011;15317;50.360;8.726;2023-04-25T20:34:10;5.57;;;4.23;;
27983;SDS011;15317;50.360;8.726;2023-04-25T20:39:15;4.93;;;4.10;;
27983;SDS011;15317;50.360;8.726;2023-04-25T20:44:18;5.27;;;4.37;;
27983;SDS011;15317;50.360;8.726;2023-04-25T20:49:24;4.57;;;4.17;;
27983;SDS011;15317;50.360;8.726;2023-04-25T20:54:28;4.80;;;3.77;;
27983;SDS011;15317;50.360;8.726;2023-04-25T20:59:32;6.27;;;3.60;;
27983;SDS011;15317;50.360;8.726;2023-04-25T21:04:35;4.17;;;3.50;;
27983;SDS011;15317;50.360;8.726;2023-04-25T21:09:40;3.87;;;3.43;;
27983;SDS011;15317;50.360;8.726;2023-04-25T21:14:44;3.90;;;3.50;;
27983;SDS011;15317;50.360;8.726;2023-04-25T21:19:47;3.90;;;3.43;;
27983;SDS011;15317;50.360;8.726;2023-04-25T21:24:51;6.03;;;3.80;;
27983;SDS011;15317;50.360;8.726;2023-04-25T21:29:57;4.00;;;3.60;;
27983;SDS011;15317;50.360;8.726;2023-04-25T21:35:00;4.37;;;3.90;;
27983;SDS011;15317;50.360;8.726;2023-04-25T21:40:05;4.27;;;3.87;;
27983;SDS011;15317;50.360;8.726;2023-04-25T21:45:09;5.40;;;3.60;;
27983;SDS011;15317;50.360;8.726;2023-04-25T21:50:13;4.63;;;3.70;;
27983;SDS011;15317;50.360;8.726;2023-04-25T21:55:17;4.93;;;3.37;;
27983;SDS011;15317;50.360;8.726;2023-04-25T22:00:22;6.20;;;3.70;;
27983;SDS011;15317;50.360;8.726;2023-04-25T22:05:28;5.43;;;3.57;;
27983;SDS011;15317;50.360;8.726;2023-04-25T22:10:33;3.90;;;3.60;;
27983;SDS011;15317;50.360;8.726;2023-04-25T22:15:36;3.80;;;3.47;;
27983;SDS011;15317;50.360;8.726;2023-04-25T22:20:39;4.17;;;3.03;;
27983;SDS011;15317;50.360;8.726;2023-04-25T22:25:43;4.53;;;3.60;;
27983;SDS011;15317;50.360;8.726;2023-04-25T22:30:46;4.00;;;3.60;;
27983;SDS011;15317;50.360;8.726;2023-04-25T22:35:50;3.70;;;3.40;;
27983;SDS011;15317;50.360;8.726;2023-04-25T22:40:54;4.10;;;3.70;;
27983;SDS011;15317;50.360;8.726;2023-04-25T22:45:57;4.33;;;3.60;;
27983;SDS011;15317;50.360;8.726;2023-04-25T22:51:00;6.60;;;3.50;;
27983;SDS011;15317;50.360;8.726;2023-04-25T22:56:05;4.30;;;3.37;;
27983;SDS011;15317;50.360;8.726;2023-04-25T23:01:08;3.53;;;3.10;;
27983;SDS011;15317;50.360;8.726;2023-04-25T23:06:12;5.77;;;3.60;;
27983;SDS011;15317;50.360;8.726;2023-04-25T23:11:16;5.30;;;3.83;;
27983;SDS011;15317;50.360;8.726;2023-04-25T23:16:21;4.00;;;3.30;;
27983;SDS011;15317;50.360;8.726;2023-04-25T23:21:24;3.70;;;3.40;;
27983;SDS011;15317;50.360;8.726;2023-04-25T23:26:28;4.23;;;3.33;;
27983;SDS011;15317;50.360;8.726;2023-04-25T23:31:32;5.57;;;3.37;;
27983;SDS011;15317;50.360;8.726;2023-04-25T23:36:35;3.97;;;3.57;;
27983;SDS011;15317;50.360;8.726;2023-04-25T23:41:39;5.30;;;3.67;;
27983;SDS011;15317;50.360;8.726;2023-04-25T23:46:43;5.67;;;3.50;;
27983;SDS011;15317;50.360;8.726;2023-04-25T23:51:46;6.53;;;3.90;;
27983;SDS011;15317;50.360;8.726;2023-04-25T23:56:51;4.20;;;3.80;;
